createdAt,value
2023-02-12T00:02:04.883Z,101536.41
2023-02-12T00:04:37.469Z,101538.27
2023-02-12T00:07:08.377Z,101549.83
2023-02-12T00:09:37.715Z,101556.33
2023-02-12T00:12:06.590Z,101562.18
2023-02-12T00:14:39.170Z,101573.73
2023-02-12T00:17:09.627Z,101577.66
2023-02-12T00:19:39.330Z,101587.77
2023-02-12T00:22:10.480Z,101605.27
2023-02-12T00:24:41.185Z,101611.27
2023-02-12T00:27:09.879Z,101603.19
2023-02-12T00:29:40.428Z,101603.71
2023-02-12T00:32:09.295Z,101606.02
2023-02-12T00:34:38.013Z,101619.49
2023-02-12T00:37:07.555Z,101621.38
2023-02-12T00:39:38.351Z,101616.21
2023-02-12T00:42:09.380Z,101620.73
2023-02-12T00:44:41.763Z,101626.70
2023-02-12T00:47:11.049Z,101632.84
2023-02-12T00:49:41.261Z,101631.86
2023-02-12T00:52:10.533Z,101630.60
2023-02-12T00:54:41.369Z,101634.71
2023-02-12T00:57:13.006Z,101638.13
2023-02-12T00:59:44.460Z,101638.56
2023-02-12T01:02:13.406Z,101639.73
2023-02-12T01:04:42.876Z,101642.27
2023-02-12T01:07:12.911Z,101645.87
2023-02-12T01:09:42.307Z,101645.70
2023-02-12T01:12:12.552Z,101650.34
2023-02-12T01:14:43.856Z,101649.20
2023-02-12T01:17:15.331Z,101655.20
2023-02-12T01:19:47.531Z,101654.12
2023-02-12T01:22:17.819Z,101656.55
2023-02-12T01:24:47.190Z,101651.74
2023-02-12T01:27:19.340Z,101659.39
2023-02-12T01:29:48.525Z,101668.89
2023-02-12T01:32:18.599Z,101671.20
2023-02-12T01:34:49.656Z,101672.59
2023-02-12T01:37:24.134Z,101679.58
2023-02-12T01:39:56.015Z,101682.28
2023-02-12T01:42:24.866Z,101686.76
2023-02-12T01:45:12.054Z,101689.98
2023-02-12T01:47:42.591Z,101693.98
2023-02-12T01:50:17.516Z,101700.65
2023-02-12T01:52:50.719Z,101705.39
2023-02-12T01:55:21.244Z,101713.15
2023-02-12T01:57:51.975Z,101724.00
2023-02-12T02:00:23.599Z,101730.25
2023-02-12T02:02:55.703Z,101736.61
2023-02-12T02:05:31.644Z,101743.30
2023-02-12T02:16:36.850Z,101755.28
2023-02-12T02:19:12.793Z,101760.25
2023-02-12T02:21:49.692Z,101759.08
2023-02-12T02:24:22.698Z,101762.88
2023-02-12T02:26:59.732Z,101762.83
2023-02-12T02:29:47.143Z,101764.34
2023-02-12T02:32:15.949Z,101764.02
2023-02-12T02:34:50.887Z,101763.06
2023-02-12T02:37:24.902Z,101765.91
2023-02-12T02:40:12.323Z,101764.99
2023-02-12T02:42:52.744Z,101766.84
2023-02-12T02:45:22.522Z,101763.89
2023-02-12T02:48:00.556Z,101763.66
2023-02-12T02:50:39.699Z,101767.30
2023-02-12T02:53:11.278Z,101771.41
2023-02-12T02:55:46.232Z,101778.39
2023-02-12T02:58:21.852Z,101782.27
2023-02-12T03:00:55.208Z,101783.39
2023-02-12T03:03:28.202Z,101791.06
2023-02-12T03:06:02.824Z,101796.04
2023-02-12T03:08:48.818Z,101795.41
2023-02-12T03:11:34.466Z,101792.02
2023-02-12T03:14:07.803Z,101798.98
2023-02-12T03:16:40.738Z,101804.73
2023-02-12T03:19:16.859Z,101799.85
2023-02-12T03:21:53.190Z,101800.80
2023-02-12T03:24:27.975Z,101806.47
2023-02-12T03:27:03.510Z,101809.90
2023-02-12T03:29:34.338Z,101813.04
2023-02-12T03:32:20.108Z,101815.45
2023-02-12T03:35:21.733Z,101820.31
2023-02-12T03:38:15.154Z,101830.36
2023-02-12T03:40:50.352Z,101832.64
2023-02-12T03:43:18.991Z,101834.90
2023-02-12T03:45:53.447Z,101840.73
2023-02-12T03:48:59.446Z,101846.50
2023-02-12T03:51:35.073Z,101852.80
2023-02-12T03:54:07.123Z,101854.57
2023-02-12T03:56:58.051Z,101855.60
2023-02-12T03:59:29.516Z,101854.65
2023-02-12T04:02:00.007Z,101855.66
2023-02-12T04:04:30.932Z,101857.28
2023-02-12T04:07:01.215Z,101856.09
2023-02-12T04:09:32.287Z,101869.95
2023-02-12T04:12:01.755Z,101878.89
2023-02-12T04:14:33.988Z,101876.20
2023-02-12T04:17:16.499Z,101879.91
2023-02-12T04:19:48.038Z,101883.17
2023-02-12T04:22:31.693Z,101892.36
2023-02-12T04:25:16.967Z,101890.60
2023-02-12T04:28:02.595Z,101894.15
2023-02-12T04:30:57.917Z,101901.27
2023-02-12T04:33:31.530Z,101905.97
2023-02-12T04:36:13.310Z,101905.96
2023-02-12T04:38:50.810Z,101916.45
2023-02-12T04:41:23.942Z,101922.66
2023-02-12T04:43:54.190Z,101922.17
2023-02-12T04:46:23.897Z,101918.98
2023-02-12T04:48:59.884Z,101916.79
2023-02-12T04:51:57.034Z,101925.67
2023-02-12T04:54:28.313Z,101925.96
2023-02-12T04:56:57.917Z,101925.52
2023-02-12T04:59:27.769Z,101927.50
2023-02-12T05:01:57.143Z,101933.23
2023-02-12T05:04:27.649Z,101941.33
2023-02-12T05:06:58.339Z,101945.63
2023-02-12T05:09:28.349Z,101942.54
2023-02-12T05:12:00.434Z,101942.59
2023-02-12T05:14:29.234Z,101943.67
2023-02-12T05:16:58.910Z,101952.33
2023-02-12T05:19:29.386Z,101958.11
2023-02-12T05:22:00.425Z,101958.86
2023-02-12T05:24:31.038Z,101961.55
2023-02-12T05:27:01.366Z,101965.66
2023-02-12T05:29:30.867Z,101967.10
2023-02-12T05:32:02.591Z,101967.31
2023-02-12T05:34:33.961Z,101967.84
2023-02-12T05:37:08.109Z,101972.25
2023-02-12T05:39:37.649Z,101975.67
2023-02-12T05:42:08.190Z,101978.79
2023-02-12T05:44:37.435Z,101981.26
2023-02-12T05:47:06.895Z,101993.35
2023-02-12T05:49:38.901Z,101992.48
2023-02-12T05:52:08.331Z,101997.69
2023-02-12T05:54:40.125Z,102005.73
2023-02-12T05:57:09.966Z,102008.03
2023-02-12T05:59:40.939Z,102003.89
2023-02-12T06:02:13.718Z,102008.92
2023-02-12T06:04:48.611Z,102014.30
2023-02-12T06:07:18.876Z,102015.30
2023-02-12T06:09:52.237Z,102008.14
2023-02-12T06:12:25.551Z,102010.23
2023-02-12T06:14:55.557Z,102015.99
2023-02-12T06:17:26.785Z,102021.02
2023-02-12T06:19:57.273Z,102026.53
2023-02-12T06:22:29.255Z,102030.42
2023-02-12T06:25:03.763Z,102032.29
2023-02-12T06:27:33.366Z,102032.29
2023-02-12T06:30:03.439Z,102032.31
2023-02-12T06:32:35.660Z,102043.41
2023-02-12T06:35:05.599Z,102049.91
2023-02-12T06:37:37.371Z,102048.40
2023-02-12T06:40:07.612Z,102055.25
2023-02-12T06:42:38.628Z,102052.64
2023-02-12T06:45:09.376Z,102048.46
2023-02-12T06:47:40.817Z,102043.41
2023-02-12T06:50:13.394Z,102043.94
2023-02-12T06:52:43.991Z,102040.70
2023-02-12T06:55:13.619Z,102039.77
2023-02-12T06:57:43.528Z,102039.92
2023-02-12T07:00:14.333Z,102042.76
2023-02-12T07:02:44.722Z,102041.95
2023-02-12T07:05:16.901Z,102047.06
2023-02-12T07:07:47.649Z,102044.06
2023-02-12T07:10:18.261Z,102035.79
2023-02-12T07:12:47.295Z,102037.57
2023-02-12T07:15:16.226Z,102040.98
2023-02-12T07:17:44.962Z,102049.27
2023-02-12T07:20:17.917Z,102049.45
2023-02-12T07:22:47.285Z,102052.02
2023-02-12T07:25:18.131Z,102054.29
2023-02-12T07:27:46.960Z,102054.44
2023-02-12T07:30:16.502Z,102057.16
2023-02-12T07:32:45.893Z,102063.50
2023-02-12T07:35:16.218Z,102069.73
2023-02-12T07:37:47.275Z,102076.88
2023-02-12T07:40:18.141Z,102080.82
2023-02-12T07:42:55.626Z,102092.38
2023-02-12T07:45:24.760Z,102095.36
2023-02-12T07:47:54.279Z,102104.45
2023-02-12T07:50:49.818Z,102104.13
2023-02-12T07:53:21.001Z,102108.13
2023-02-12T07:55:51.463Z,102107.44
2023-02-12T07:58:21.577Z,102111.70
2023-02-12T08:00:51.115Z,102107.55
2023-02-12T08:03:23.991Z,102109.52
2023-02-12T08:05:56.904Z,102106.09
2023-02-12T08:08:28.699Z,102100.91
2023-02-12T08:10:58.712Z,102107.14
2023-02-12T08:13:29.340Z,102105.81
2023-02-12T08:16:03.527Z,102104.80
2023-02-12T08:18:33.316Z,102100.56
2023-02-12T08:21:03.683Z,102100.52
2023-02-12T08:23:34.979Z,102103.39
2023-02-12T08:26:11.067Z,102105.71
2023-02-12T08:28:41.850Z,102105.70
2023-02-12T08:31:13.825Z,102106.80
2023-02-12T08:33:48.272Z,102100.38
2023-02-12T08:36:20.965Z,102096.32
2023-02-12T08:38:52.440Z,102094.30
2023-02-12T08:41:23.659Z,102097.73
2023-02-12T08:43:59.577Z,102095.63
2023-02-12T08:46:31.545Z,102091.67
2023-02-12T08:49:02.367Z,102094.13
2023-02-12T08:51:32.791Z,102096.76
2023-02-12T08:54:03.611Z,102096.80
2023-02-12T08:56:35.445Z,102091.83
2023-02-12T08:59:08.332Z,102093.17
2023-02-12T09:01:41.510Z,102092.15
2023-02-12T09:04:40.562Z,102088.65
2023-02-12T09:07:17.664Z,102084.05
2023-02-12T09:09:47.674Z,102079.73
2023-02-12T09:12:19.444Z,102085.43
2023-02-12T09:14:50.259Z,102082.19
2023-02-12T09:17:27.918Z,102086.99
2023-02-12T09:20:01.929Z,102091.01
2023-02-12T09:22:33.714Z,102092.46
2023-02-12T09:25:05.897Z,102095.16
2023-02-12T09:27:36.599Z,102102.63
2023-02-12T09:30:09.735Z,102110.78
2023-02-12T09:32:39.036Z,102112.39
2023-02-12T09:35:13.392Z,102112.72
2023-02-12T09:37:45.683Z,102119.27
2023-02-12T09:40:25.430Z,102125.89
2023-02-12T09:43:09.194Z,102123.38
2023-02-12T09:45:50.317Z,102132.05
2023-02-12T09:48:34.248Z,102134.29
2023-02-12T09:51:31.501Z,102141.77
2023-02-12T09:54:20.584Z,102139.35
2023-02-12T09:56:52.829Z,102133.28
2023-02-12T09:59:34.230Z,102137.98
2023-02-12T10:02:04.445Z,102131.70
2023-02-12T10:04:34.882Z,102135.00
2023-02-12T10:07:21.510Z,102134.08
2023-02-12T10:09:51.064Z,102135.55
2023-02-12T10:12:35.052Z,102140.89
2023-02-12T10:15:17.951Z,102136.60
2023-02-12T10:18:07.516Z,102135.70
2023-02-12T10:20:44.365Z,102133.54
2023-02-12T10:23:15.634Z,102136.97
2023-02-12T10:25:55.638Z,102130.22
2023-02-12T10:29:15.467Z,102139.86
2023-02-12T10:31:58.475Z,102139.32
2023-02-12T10:34:34.359Z,102135.56
2023-02-12T10:37:25.299Z,102135.00
2023-02-12T10:39:58.153Z,102132.89
2023-02-12T10:42:41.739Z,102122.48
2023-02-12T10:45:18.704Z,102126.59
2023-02-12T10:47:52.429Z,102124.86
2023-02-12T10:50:34.637Z,102128.13
2023-02-12T10:53:05.674Z,102128.44
2023-02-12T10:55:40.003Z,102131.57
2023-02-12T10:58:25.111Z,102134.55
2023-02-12T11:01:00.840Z,102138.88
2023-02-12T11:03:42.084Z,102140.29
2023-02-12T11:06:13.830Z,102131.61
2023-02-12T11:08:44.004Z,102129.69
2023-02-12T11:11:14.563Z,102129.66
2023-02-12T11:13:50.068Z,102130.92
2023-02-12T11:16:30.999Z,102133.02
2023-02-12T11:19:25.238Z,102129.32
2023-02-12T11:22:11.779Z,102124.59
2023-02-12T11:24:44.523Z,102119.86
2023-02-12T11:27:17.612Z,102116.08
2023-02-12T11:30:05.120Z,102107.13
2023-02-12T11:32:37.497Z,102108.16
2023-02-12T11:35:34.628Z,102101.46
2023-02-12T11:38:06.963Z,102096.09
2023-02-12T11:40:47.854Z,102102.44
2023-02-12T11:43:20.225Z,102103.23
2023-02-12T11:45:53.922Z,102099.06
2023-02-12T11:48:35.573Z,102096.31
2023-02-12T11:51:11.009Z,102097.83
2023-02-12T11:53:47.946Z,102091.25
2023-02-12T11:56:17.480Z,102093.45
2023-02-12T11:58:47.928Z,102094.06
2023-02-12T12:01:23.273Z,102093.59
2023-02-12T12:03:57.967Z,102089.27
2023-02-12T12:06:36.910Z,102087.02
2023-02-12T12:09:18.921Z,102083.86
2023-02-12T12:11:56.232Z,102084.64
2023-02-12T12:14:31.328Z,102083.27
2023-02-12T12:17:25.995Z,102074.95
2023-02-12T12:20:12.267Z,102079.79
2023-02-12T12:22:45.274Z,102086.30
2023-02-12T12:25:28.738Z,102087.88
2023-02-12T12:28:04.390Z,102078.89
2023-02-12T12:30:48.885Z,102077.08
2023-02-12T12:33:27.922Z,102075.71
2023-02-12T12:36:04.564Z,102074.68
2023-02-12T12:38:52.295Z,102068.34
2023-02-12T12:41:40.477Z,102068.10
2023-02-12T12:44:36.450Z,102075.45
2023-02-12T12:47:06.622Z,102074.25
2023-02-12T12:49:50.362Z,102074.91
2023-02-12T12:52:44.845Z,102071.33
2023-02-12T12:55:28.363Z,102066.23
2023-02-12T12:58:30.448Z,102062.52
2023-02-12T13:01:06.545Z,102062.85
2023-02-12T13:03:55.977Z,102060.08
2023-02-12T13:06:52.569Z,102062.96
2023-02-12T13:09:37.819Z,102059.33
2023-02-12T13:12:16.641Z,102055.81
2023-02-12T13:14:47.223Z,102053.19
2023-02-12T13:17:18.827Z,102046.90
2023-02-12T13:19:58.959Z,102046.59
2023-02-12T13:22:36.320Z,102056.06
2023-02-12T13:25:28.316Z,102054.52
2023-02-12T13:28:17.065Z,102051.32
2023-02-12T13:31:24.859Z,102050.36
2023-02-12T13:34:03.517Z,102044.71
2023-02-12T13:36:40.676Z,102048.23
2023-02-12T13:39:34.294Z,102050.71
2023-02-12T13:42:28.800Z,102060.11
2023-02-12T13:44:59.656Z,102059.30
2023-02-12T13:47:32.787Z,102063.10
2023-02-12T13:50:26.449Z,102068.34
2023-02-12T13:53:06.405Z,102061.20
2023-02-12T13:55:53.752Z,102055.30
2023-02-12T13:58:37.294Z,102052.08
2023-02-12T14:01:40.931Z,102053.61
2023-02-12T14:04:22.167Z,102053.29
2023-02-12T14:07:14.453Z,102053.31
2023-02-12T14:10:07.848Z,102047.16
2023-02-12T14:12:42.697Z,102046.46
2023-02-12T14:15:31.857Z,102050.98
2023-02-12T14:18:06.677Z,102052.80
2023-02-12T14:20:38.291Z,102053.52
2023-02-12T14:23:29.094Z,102052.27
2023-02-12T14:26:04.452Z,102042.13
2023-02-12T14:28:53.621Z,102043.39
2023-02-12T14:31:44.326Z,102045.66
2023-02-12T14:34:35.879Z,102045.05
2023-02-12T14:37:16.545Z,102034.88
2023-02-12T14:39:49.248Z,102027.87
2023-02-12T14:42:50.200Z,102022.34
2023-02-12T14:45:36.578Z,102025.93
2023-02-12T14:48:29.066Z,102026.42
2023-02-12T15:22:40.986Z,102038.90
2023-02-12T15:25:41.968Z,102039.93
2023-02-12T15:28:20.646Z,102028.44
2023-02-12T15:33:26.037Z,102018.14
2023-02-12T15:36:03.188Z,102026.91
2023-02-12T15:38:45.772Z,102024.70
2023-02-12T15:41:37.585Z,102017.08
2023-02-12T15:44:23.259Z,102017.16
2023-02-12T15:46:59.686Z,102023.95
2023-02-12T15:49:34.929Z,102021.27
2023-02-12T15:52:13.327Z,102017.44
2023-02-12T15:54:48.181Z,102022.24
2023-02-12T15:57:22.911Z,102025.43
2023-02-12T16:00:15.866Z,102025.92
2023-02-12T16:02:52.945Z,102025.54
2023-02-12T16:05:24.351Z,102029.09
2023-02-12T16:07:57.626Z,102034.35
2023-02-12T16:10:28.148Z,102029.35
2023-02-12T16:13:00.153Z,102022.63
2023-02-12T16:15:37.086Z,102018.91
2023-02-12T16:18:26.678Z,102028.73
2023-02-12T16:21:20.911Z,102038.29
2023-02-12T16:23:57.035Z,102035.95
2023-02-12T16:26:52.438Z,102037.79
2023-02-12T16:29:42.900Z,102033.69
2023-02-12T16:32:28.446Z,102027.18
2023-02-12T16:35:08.147Z,102024.83
2023-02-12T16:37:39.027Z,102028.54
2023-02-12T16:40:18.887Z,102027.50
2023-02-12T16:43:09.615Z,102022.55
2023-02-12T16:45:41.437Z,102026.91
2023-02-12T16:48:18.189Z,102023.09
2023-02-12T16:50:54.786Z,102022.96
2023-02-12T16:53:28.946Z,102021.95
2023-02-12T16:56:02.991Z,102023.30
2023-02-12T16:58:37.059Z,102016.98
2023-02-12T17:01:10.675Z,102013.29
2023-02-12T17:03:45.624Z,102012.66
2023-02-12T17:06:21.300Z,102015.68
2023-02-12T17:08:53.595Z,102015.96
2023-02-12T17:11:27.862Z,102017.43
2023-02-12T17:13:58.781Z,102012.70
2023-02-12T17:16:32.331Z,102005.76
2023-02-12T17:19:06.381Z,102004.55
2023-02-12T17:21:45.677Z,102003.79
2023-02-12T17:24:28.929Z,102003.87
2023-02-12T17:27:06.813Z,102000.52
2023-02-12T17:29:48.676Z,101998.48
2023-02-12T17:32:24.284Z,101997.55
2023-02-12T17:35:11.143Z,101998.18
2023-02-12T17:37:48.959Z,101998.21
2023-02-12T17:40:45.394Z,101998.82
2023-02-12T17:43:23.741Z,102001.98
2023-02-12T17:46:04.180Z,101997.34
2023-02-12T17:48:41.098Z,101991.84
2023-02-12T17:52:10.653Z,101988.00
2023-02-12T17:54:51.374Z,101977.61
2023-02-12T17:57:23.264Z,101974.84
2023-02-12T17:59:55.940Z,101974.32
2023-02-12T18:02:28.433Z,101974.54
2023-02-12T18:05:05.297Z,101968.98
2023-02-12T18:07:39.363Z,101966.77
2023-02-12T18:10:11.749Z,101967.97
2023-02-12T18:12:49.407Z,101967.27
2023-02-12T18:15:23.026Z,101965.53
2023-02-12T18:17:54.037Z,101967.36
2023-02-12T18:20:31.482Z,101966.73
2023-02-12T18:23:05.349Z,101960.30
2023-02-12T18:25:58.739Z,101956.41
2023-02-12T18:28:40.156Z,101956.98
2023-02-12T18:31:14.813Z,101958.52
2023-02-12T18:33:47.011Z,101957.45
2023-02-12T18:36:21.179Z,101957.77
2023-02-12T18:38:54.106Z,101958.44
2023-02-12T18:41:27.819Z,101957.48
2023-02-12T18:44:00.058Z,101957.61
2023-02-12T18:46:39.765Z,101953.09
2023-02-12T18:49:22.645Z,101952.30
2023-02-12T18:51:58.391Z,101946.72
2023-02-12T18:54:29.333Z,101948.19
2023-02-12T18:57:09.147Z,101947.84
2023-02-12T18:59:45.348Z,101943.75
2023-02-12T19:02:26.911Z,101945.89
2023-02-12T19:05:01.676Z,101940.38
2023-02-12T19:07:40.981Z,101937.17
2023-02-12T19:10:16.393Z,101940.33
2023-02-12T19:12:49.270Z,101936.27
2023-02-12T19:15:22.196Z,101934.63
2023-02-12T19:17:59.000Z,101936.54
2023-02-12T19:20:31.926Z,101933.64
2023-02-12T19:23:06.640Z,101928.05
2023-02-12T19:25:59.244Z,101926.50
2023-02-12T19:28:32.057Z,101929.02
2023-02-12T19:31:16.330Z,101925.45
2023-02-12T19:33:50.481Z,101925.55
2023-02-12T19:36:24.779Z,101923.58
2023-02-12T19:38:58.040Z,101925.14
2023-02-12T19:41:41.977Z,101924.58
2023-02-12T19:44:18.925Z,101931.24
2023-02-12T19:46:51.538Z,101926.89
2023-02-12T19:49:24.393Z,101929.78
2023-02-12T19:52:00.563Z,101927.49
2023-02-12T19:54:37.122Z,101919.71
2023-02-12T19:57:15.672Z,101917.10
2023-02-12T19:59:55.090Z,101915.78
2023-02-12T20:02:27.103Z,101914.06
2023-02-12T20:04:59.550Z,101906.23
2023-02-12T20:07:32.839Z,101906.77
2023-02-12T20:10:04.993Z,101900.48
2023-02-12T20:12:41.393Z,101903.80
2023-02-12T20:15:14.254Z,101906.36
2023-02-12T20:17:48.583Z,101897.08
2023-02-12T20:20:22.930Z,101898.36
2023-02-12T20:22:58.337Z,101898.38
2023-02-12T20:25:32.910Z,101896.70
2023-02-12T20:28:08.141Z,101896.03
2023-02-12T20:30:48.209Z,101902.24
2023-02-12T20:33:23.044Z,101901.32
2023-02-12T20:36:00.004Z,101901.73
2023-02-12T20:38:32.806Z,101905.94
2023-02-12T20:41:13.647Z,101904.40
2023-02-12T20:43:48.676Z,101904.23
2023-02-12T20:46:23.241Z,101903.37
2023-02-12T20:48:56.698Z,101894.23
2023-02-12T20:52:12.366Z,101888.74
2023-02-12T20:54:48.837Z,101892.95
2023-02-12T20:57:24.738Z,101892.52
2023-02-12T20:59:56.522Z,101896.62
2023-02-12T21:02:29.421Z,101890.00
2023-02-12T21:05:00.815Z,101894.67
2023-02-12T21:07:33.155Z,101888.02
2023-02-12T21:10:05.112Z,101887.70
2023-02-12T21:12:37.434Z,101890.63
2023-02-12T21:15:10.642Z,101890.08
2023-02-12T21:17:50.301Z,101892.71
2023-02-12T21:20:24.425Z,101893.05
2023-02-12T21:23:00.911Z,101895.79
2023-02-12T21:25:31.941Z,101899.89
2023-02-12T21:28:04.237Z,101892.98
2023-02-12T21:30:38.612Z,101892.23
2023-02-12T21:33:13.394Z,101886.96
2023-02-12T21:35:50.239Z,101877.44
2023-02-12T21:38:24.508Z,101879.52
2023-02-12T21:41:03.713Z,101880.58
2023-02-12T21:43:37.047Z,101882.95
2023-02-12T21:46:10.115Z,101878.23
2023-02-12T21:48:41.896Z,101884.45
2023-02-12T21:52:02.595Z,101884.64
2023-02-12T21:54:33.558Z,101879.77
2023-02-12T21:57:10.078Z,101881.63
2023-02-12T21:59:41.067Z,101882.41
2023-02-12T22:02:11.783Z,101882.55
2023-02-12T22:04:43.665Z,101885.75
2023-02-12T22:07:13.192Z,101889.14
2023-02-12T22:09:44.099Z,101889.77
2023-02-12T22:12:19.628Z,101886.95
2023-02-12T22:14:50.325Z,101888.96
2023-02-12T22:17:20.222Z,101889.98
2023-02-12T22:19:49.835Z,101888.58
2023-02-12T22:22:20.884Z,101891.11
2023-02-12T22:24:50.879Z,101887.38
2023-02-12T22:27:24.338Z,101886.79
2023-02-12T22:29:55.043Z,101886.89
2023-02-12T22:32:28.470Z,101889.89
2023-02-12T22:34:58.349Z,101888.02
2023-02-12T22:37:29.289Z,101882.23
2023-02-12T22:39:59.918Z,101881.91
2023-02-12T22:42:32.164Z,101877.93
2023-02-12T22:45:02.279Z,101873.71
2023-02-12T22:47:35.213Z,101867.52
2023-02-12T22:50:07.457Z,101864.82
2023-02-12T22:52:37.412Z,101857.88
2023-02-12T22:55:09.195Z,101854.70
2023-02-12T22:57:38.840Z,101853.20
2023-02-12T23:00:10.930Z,101848.25
2023-02-12T23:02:43.971Z,101846.45
2023-02-12T23:05:14.156Z,101844.30
2023-02-12T23:07:45.925Z,101837.73
2023-02-12T23:10:15.883Z,101842.34
2023-02-12T23:12:47.389Z,101842.99
2023-02-12T23:15:18.634Z,101836.77
2023-02-12T23:17:48.312Z,101837.23
2023-02-12T23:20:21.137Z,101838.62
2023-02-12T23:22:50.647Z,101832.23
2023-02-12T23:25:20.794Z,101829.70
2023-02-12T23:27:51.708Z,101829.49
2023-02-12T23:30:22.484Z,101822.76
2023-02-12T23:32:53.620Z,101817.83
2023-02-12T23:35:24.907Z,101816.13
2023-02-12T23:37:57.109Z,101818.09
2023-02-12T23:40:26.349Z,101818.46
2023-02-12T23:42:57.435Z,101813.34
2023-02-12T23:45:28.810Z,101809.95
2023-02-12T23:47:59.385Z,101807.11
2023-02-12T23:50:29.105Z,101798.16
2023-02-12T23:53:01.776Z,101793.52
2023-02-12T23:55:37.343Z,101788.49
2023-02-12T23:58:08.878Z,101787.98
